createdAt,value
2023-02-08T00:01:20.737Z,11.03
2023-02-08T00:03:49.286Z,12.50
2023-02-08T00:06:18.176Z,13.10
2023-02-08T00:08:46.829Z,13.23
2023-02-08T00:11:15.386Z,12.23
2023-02-08T00:13:43.913Z,13.13
2023-02-08T00:16:12.727Z,12.87
2023-02-08T00:18:42.619Z,13.73
2023-02-08T00:21:11.935Z,13.73
2023-02-08T00:23:40.508Z,11.07
2023-02-08T00:26:09.004Z,11.53
2023-02-08T00:28:37.437Z,14.50
2023-02-08T00:31:06.349Z,16.57
2023-02-08T00:33:35.060Z,10.43
2023-02-08T00:36:06.166Z,15.00
2023-02-08T00:38:34.663Z,14.00
2023-02-08T00:41:03.113Z,13.27
2023-02-08T00:43:31.501Z,12.10
2023-02-08T00:46:00.821Z,12.57
2023-02-08T00:48:29.734Z,11.50
2023-02-08T00:51:02.203Z,11.93
2023-02-08T00:53:32.244Z,12.50
2023-02-08T00:56:00.698Z,18.67
2023-02-08T00:58:29.160Z,13.40
2023-02-08T01:00:57.694Z,17.17
2023-02-08T01:03:26.477Z,13.63
2023-02-08T01:05:54.953Z,12.90
2023-02-08T01:08:23.412Z,10.87
2023-02-08T01:10:53.199Z,13.57
2023-02-08T01:13:21.682Z,12.40
2023-02-08T01:15:50.956Z,12.23
2023-02-08T01:18:19.384Z,14.90
2023-02-08T01:20:47.790Z,13.00
2023-02-08T01:23:16.240Z,11.63
2023-02-08T01:25:44.635Z,12.47
2023-02-08T01:28:14.480Z,14.57
2023-02-08T01:30:43.308Z,12.53
2023-02-08T01:33:11.933Z,13.10
2023-02-08T01:35:40.347Z,13.03
2023-02-08T01:38:08.821Z,13.93
2023-02-08T01:40:37.457Z,12.77
2023-02-08T01:43:05.992Z,13.00
2023-02-08T01:45:35.785Z,10.87
2023-02-08T01:48:07.016Z,10.93
2023-02-08T01:50:38.725Z,12.13
2023-02-08T01:53:07.374Z,15.10
2023-02-08T01:55:37.764Z,10.40
2023-02-08T01:58:08.269Z,10.93
2023-02-08T02:00:38.233Z,12.57
2023-02-08T02:03:07.205Z,10.20
2023-02-08T02:05:37.244Z,11.40
2023-02-08T02:08:05.956Z,11.27
2023-02-08T02:10:35.103Z,11.97
2023-02-08T02:13:05.064Z,10.43
2023-02-08T02:15:33.606Z,10.90
2023-02-08T02:18:03.753Z,12.37
2023-02-08T02:20:38.322Z,11.97
2023-02-08T02:23:21.624Z,13.63
2023-02-08T02:26:07.762Z,10.77
2023-02-08T02:28:44.619Z,9.80
2023-02-08T02:31:25.826Z,12.77
2023-02-08T02:34:01.371Z,13.00
2023-02-08T02:36:34.804Z,11.43
2023-02-08T02:39:10.636Z,12.97
2023-02-08T02:42:00.709Z,10.10
2023-02-08T02:44:37.074Z,11.97
2023-02-08T02:47:10.975Z,12.13
2023-02-08T02:49:41.647Z,11.20
2023-02-08T02:52:12.986Z,11.47
2023-02-08T02:54:43.756Z,12.27
2023-02-08T02:57:13.580Z,12.70
2023-02-08T02:59:43.135Z,13.03
2023-02-08T03:02:13.869Z,10.30
2023-02-08T03:04:53.324Z,16.93
2023-02-08T03:07:38.112Z,11.27
2023-02-08T03:10:12.437Z,14.20
2023-02-08T03:12:45.958Z,12.30
2023-02-08T03:15:24.635Z,11.93
2023-02-08T03:17:58.836Z,13.33
2023-02-08T03:20:29.650Z,12.63
2023-02-08T03:23:01.030Z,12.77
2023-02-08T03:25:34.860Z,12.63
2023-02-08T03:28:05.691Z,13.40
2023-02-08T03:30:36.109Z,12.37
2023-02-08T03:33:08.729Z,12.43
2023-02-08T03:35:40.958Z,13.70
2023-02-08T03:38:11.339Z,13.87
2023-02-08T03:40:41.267Z,12.87
2023-02-08T03:43:11.407Z,13.03
2023-02-08T03:45:42.312Z,12.47
2023-02-08T03:48:13.408Z,13.33
2023-02-08T03:50:43.148Z,11.43
2023-02-08T03:53:12.689Z,15.40
2023-02-08T03:55:42.056Z,14.67
2023-02-08T03:58:12.256Z,13.50
2023-02-08T04:00:42.708Z,14.67
2023-02-08T04:03:13.987Z,14.20
2023-02-08T04:05:42.788Z,14.17
2023-02-08T04:08:11.230Z,14.43
2023-02-08T04:10:40.175Z,16.13
2023-02-08T04:13:08.794Z,15.67
2023-02-08T04:15:37.255Z,16.33
2023-02-08T04:18:06.090Z,15.57
2023-02-08T04:20:35.888Z,16.93
2023-02-08T04:23:04.326Z,13.30
2023-02-08T04:25:32.754Z,14.90
2023-02-08T04:28:01.190Z,16.03
2023-02-08T04:30:29.739Z,15.77
2023-02-08T04:32:58.342Z,16.70
2023-02-08T04:35:26.786Z,14.80
2023-02-08T04:37:56.645Z,16.27
2023-02-08T04:40:25.080Z,17.10
2023-02-08T04:42:53.478Z,16.40
2023-02-08T04:45:21.919Z,17.53
2023-02-08T04:47:50.363Z,15.63
2023-02-08T04:50:18.801Z,14.63
2023-02-08T04:52:47.200Z,17.87
2023-02-08T04:55:17.160Z,15.07
2023-02-08T04:57:45.558Z,16.90
2023-02-08T05:00:14.677Z,16.47
2023-02-08T05:02:43.075Z,14.43
2023-02-08T05:05:11.561Z,17.40
2023-02-08T05:07:40.029Z,18.53
2023-02-08T05:10:08.864Z,18.80
2023-02-08T05:12:38.670Z,15.70
2023-02-08T05:15:07.283Z,17.63
2023-02-08T05:17:35.676Z,17.67
2023-02-08T05:20:04.584Z,16.83
2023-02-08T05:22:33.273Z,17.77
2023-02-08T05:25:01.746Z,14.87
2023-02-08T05:27:30.185Z,16.43
2023-02-08T05:30:00.300Z,18.57
2023-02-08T05:32:29.072Z,18.30
2023-02-08T05:34:57.477Z,18.60
2023-02-08T05:37:25.931Z,18.07
2023-02-08T05:39:54.433Z,18.43
2023-02-08T05:42:22.892Z,18.50
2023-02-08T05:44:51.728Z,17.47
2023-02-08T05:47:21.975Z,20.60
2023-02-08T05:49:50.375Z,16.57
2023-02-08T05:52:18.807Z,18.37
2023-02-08T05:54:47.229Z,21.00
2023-02-08T05:57:15.658Z,19.83
2023-02-08T05:59:44.053Z,20.43
2023-02-08T06:02:15.393Z,20.87
2023-02-08T06:04:46.067Z,17.27
2023-02-08T06:07:14.489Z,18.53
2023-02-08T06:09:42.898Z,17.20
2023-02-08T06:12:11.350Z,16.93
2023-02-08T06:14:39.794Z,19.33
2023-02-08T06:17:08.282Z,19.13
2023-02-08T06:19:36.694Z,19.33
2023-02-08T06:22:06.478Z,18.00
2023-02-08T06:24:34.915Z,19.10
2023-02-08T06:27:03.347Z,18.57
2023-02-08T06:29:31.862Z,17.43
2023-02-08T06:32:00.411Z,21.43
2023-02-08T06:34:28.905Z,15.70
2023-02-08T06:36:59.860Z,18.87
2023-02-08T06:39:29.914Z,20.07
2023-02-08T06:41:58.367Z,16.87
2023-02-08T06:44:26.784Z,19.37
2023-02-08T06:46:55.229Z,20.33
2023-02-08T06:49:23.680Z,18.87
2023-02-08T06:51:52.113Z,24.17
2023-02-08T06:54:20.600Z,20.27
2023-02-08T06:56:50.446Z,21.37
2023-02-08T06:59:18.893Z,20.07
2023-02-08T07:01:47.338Z,21.90
2023-02-08T07:04:15.745Z,22.03
2023-02-08T07:06:44.138Z,24.93
2023-02-08T07:09:12.585Z,25.73
2023-02-08T07:11:40.995Z,25.40
2023-02-08T07:14:13.840Z,27.83
2023-02-08T07:16:42.642Z,26.83
2023-02-08T07:19:11.107Z,24.60
2023-02-08T07:21:39.497Z,22.07
2023-02-08T07:24:07.984Z,25.37
2023-02-08T07:26:36.400Z,25.93
2023-02-08T07:29:04.875Z,24.83
2023-02-08T07:31:34.791Z,29.37
2023-02-08T07:34:03.289Z,22.97
2023-02-08T07:36:31.713Z,27.67
2023-02-08T07:39:00.422Z,30.43
2023-02-08T07:41:28.874Z,23.97
2023-02-08T07:43:57.304Z,26.50
2023-02-08T07:46:25.765Z,26.23
2023-02-08T07:48:55.566Z,25.43
2023-02-08T07:51:24.005Z,24.43
2023-02-08T07:53:52.777Z,22.87
2023-02-08T07:56:21.217Z,27.70
2023-02-08T07:58:49.692Z,23.57
2023-02-08T08:01:22.212Z,25.07
2023-02-08T08:03:51.267Z,24.90
2023-02-08T08:06:21.477Z,23.83
2023-02-08T08:08:49.978Z,22.50
2023-02-08T08:11:18.953Z,23.60
2023-02-08T08:13:47.482Z,22.10
2023-02-08T08:16:15.990Z,23.67
2023-02-08T08:18:44.700Z,21.37
2023-02-08T08:21:13.419Z,22.97
2023-02-08T08:23:43.282Z,22.13
2023-02-08T08:26:15.327Z,20.87
2023-02-08T08:28:44.251Z,20.03
2023-02-08T08:31:13.567Z,21.30
2023-02-08T08:33:42.018Z,19.57
2023-02-08T08:36:10.999Z,19.40
2023-02-08T08:38:41.009Z,22.97
2023-02-08T08:41:12.085Z,19.67
2023-02-08T08:43:40.510Z,18.73
2023-02-08T08:46:09.584Z,19.73
2023-02-08T08:48:38.303Z,15.77
2023-02-08T08:51:07.183Z,16.07
2023-02-08T08:53:37.107Z,16.70
2023-02-08T08:56:05.745Z,13.10
2023-02-08T08:58:35.524Z,13.67
2023-02-08T09:01:03.995Z,13.53
2023-02-08T09:03:32.479Z,14.40
2023-02-08T09:06:00.939Z,12.03
2023-02-08T09:08:29.335Z,10.90
2023-02-08T09:10:57.759Z,10.63
2023-02-08T09:13:26.146Z,9.23
2023-02-08T09:15:56.012Z,11.17
2023-02-08T09:18:24.458Z,16.50
2023-02-08T09:20:52.894Z,9.73
2023-02-08T09:23:21.309Z,9.00
2023-02-08T09:25:50.195Z,9.17
2023-02-08T09:28:18.701Z,8.83
2023-02-08T09:30:47.209Z,12.17
2023-02-08T09:33:17.102Z,12.50
2023-02-08T09:35:45.590Z,9.93
2023-02-08T09:38:14.223Z,8.80
2023-02-08T09:40:47.304Z,7.10
2023-02-08T09:43:19.336Z,8.50
2023-02-08T09:45:59.807Z,9.53
2023-02-08T09:48:31.062Z,9.27
2023-02-08T09:51:02.037Z,9.87
2023-02-08T09:53:32.624Z,14.88
2023-02-08T09:56:02.209Z,13.55
2023-02-08T09:58:36.277Z,9.45
2023-02-08T10:01:07.556Z,8.32
2023-02-08T10:03:38.673Z,8.55
2023-02-08T10:06:08.391Z,9.20
2023-02-08T10:08:37.231Z,8.80
2023-02-08T10:11:11.213Z,7.43
2023-02-08T10:13:46.758Z,9.68
2023-02-08T10:16:20.348Z,6.57
2023-02-08T10:18:52.004Z,7.18
2023-02-08T10:21:26.874Z,8.10
2023-02-08T10:24:01.326Z,7.30
2023-02-08T10:26:32.598Z,7.28
2023-02-08T10:29:14.236Z,8.30
2023-02-08T10:31:52.060Z,7.32
2023-02-08T10:34:27.701Z,9.32
2023-02-08T10:36:56.160Z,9.00
2023-02-08T10:39:26.366Z,6.50
2023-02-08T10:41:55.030Z,8.30
2023-02-08T10:44:28.106Z,6.40
2023-02-08T10:47:01.160Z,8.93
2023-02-08T10:49:35.597Z,6.55
2023-02-08T10:52:04.075Z,8.52
2023-02-08T10:54:32.545Z,7.05
2023-02-08T10:57:03.706Z,6.35
2023-02-08T10:59:34.005Z,6.30
2023-02-08T11:02:02.597Z,6.97
2023-02-08T11:04:32.605Z,5.85
2023-02-08T11:07:20.568Z,5.88
2023-02-08T11:09:49.025Z,6.10
2023-02-08T11:12:21.102Z,5.28
2023-02-08T11:14:50.780Z,6.80
2023-02-08T11:17:29.406Z,5.00
2023-02-08T11:20:00.326Z,6.65
2023-02-08T11:22:31.056Z,7.60
2023-02-08T11:25:00.570Z,7.60
2023-02-08T11:27:33.491Z,6.53
2023-02-08T11:30:25.044Z,6.13
2023-02-08T11:33:08.390Z,5.65
2023-02-08T11:35:38.280Z,5.35
2023-02-08T11:38:06.838Z,5.07
2023-02-08T11:40:37.035Z,5.10
2023-02-08T11:43:06.593Z,5.20
2023-02-08T11:45:37.413Z,5.45
2023-02-08T11:48:06.467Z,5.65
2023-02-08T11:50:36.050Z,5.68
2023-02-08T11:53:08.516Z,6.30
2023-02-08T11:55:37.595Z,5.50
2023-02-08T11:58:07.147Z,5.68
2023-02-08T12:00:36.906Z,4.28
2023-02-08T12:03:07.063Z,5.75
2023-02-08T12:05:41.596Z,3.70
2023-02-08T12:08:16.238Z,3.97
2023-02-08T12:10:52.033Z,3.67
2023-02-08T12:13:41.199Z,3.75
2023-02-08T12:16:14.243Z,6.35
2023-02-08T12:18:48.999Z,5.18
2023-02-08T12:21:19.583Z,4.10
2023-02-08T12:23:52.213Z,3.38
2023-02-08T12:26:24.286Z,4.45
2023-02-08T12:29:04.938Z,3.75
2023-02-08T12:31:40.775Z,3.50
2023-02-08T12:34:12.457Z,4.07
2023-02-08T12:37:14.524Z,5.50
2023-02-08T12:40:06.169Z,7.25
2023-02-08T12:42:44.432Z,6.75
2023-02-08T12:45:24.085Z,5.57
2023-02-08T12:48:04.397Z,3.70
2023-02-08T12:50:35.470Z,3.70
2023-02-08T12:53:05.068Z,4.78
2023-02-08T12:55:37.156Z,3.55
2023-02-08T12:58:10.648Z,5.72
2023-02-08T13:00:39.535Z,3.78
2023-02-08T13:03:10.331Z,3.95
2023-02-08T13:05:46.203Z,5.55
2023-02-08T13:08:29.303Z,3.75
2023-02-08T13:11:10.748Z,3.40
2023-02-08T13:13:47.971Z,4.85
2023-02-08T13:16:19.700Z,5.43
2023-02-08T13:18:49.847Z,3.50
2023-02-08T13:21:19.967Z,4.13
2023-02-08T13:23:52.713Z,5.07
2023-02-08T13:26:26.573Z,3.25
2023-02-08T13:28:57.098Z,5.45
2023-02-08T13:31:27.412Z,3.35
2023-02-08T13:34:01.944Z,4.68
2023-02-08T13:36:31.946Z,3.10
2023-02-08T13:39:00.949Z,4.18
2023-02-08T13:41:31.566Z,3.95
2023-02-08T13:44:00.874Z,4.63
2023-02-08T13:46:30.793Z,3.80
2023-02-08T13:49:00.970Z,3.42
2023-02-08T13:52:03.434Z,4.70
2023-02-08T13:54:31.927Z,3.83
2023-02-08T13:57:01.773Z,3.70
2023-02-08T13:59:33.725Z,3.53
2023-02-08T14:02:19.773Z,4.43
2023-02-08T14:04:48.793Z,4.72
2023-02-08T14:07:21.574Z,5.03
2023-02-08T14:09:52.579Z,4.47
2023-02-08T14:12:29.080Z,3.58
2023-02-08T14:15:25.316Z,3.38
2023-02-08T14:17:58.258Z,4.30
2023-02-08T14:20:29.060Z,3.88
2023-02-08T14:22:58.890Z,3.47
2023-02-08T14:25:29.582Z,4.15
2023-02-08T14:28:00.060Z,3.15
2023-02-08T14:30:29.836Z,3.67
2023-02-08T14:33:12.976Z,3.40
2023-02-08T14:35:43.208Z,3.35
2023-02-08T14:38:30.583Z,3.45
2023-02-08T14:40:59.821Z,4.68
2023-02-08T14:43:39.142Z,4.47
2023-02-08T14:46:26.110Z,3.45
2023-02-08T14:48:54.952Z,2.95
2023-02-08T14:51:26.132Z,3.03
2023-02-08T14:53:56.211Z,4.25
2023-02-08T14:56:26.534Z,3.35
2023-02-08T14:58:58.626Z,4.13
2023-02-08T15:01:32.550Z,3.28
2023-02-08T15:04:02.807Z,4.18
2023-02-08T15:07:01.923Z,4.15
2023-02-08T15:09:31.142Z,4.78
2023-02-08T15:12:01.866Z,4.53
2023-02-08T15:14:32.037Z,4.55
2023-02-08T15:17:00.556Z,6.05
2023-02-08T15:19:30.194Z,5.07
2023-02-08T15:22:17.895Z,3.75
2023-02-08T15:24:52.723Z,3.95
2023-02-08T15:27:22.349Z,3.97
2023-02-08T15:29:52.414Z,5.45
2023-02-08T15:32:22.819Z,4.40
2023-02-08T15:34:55.406Z,6.45
2023-02-08T15:37:24.280Z,5.30
2023-02-08T15:39:53.819Z,8.30
2023-02-08T15:42:22.984Z,5.40
2023-02-08T15:44:53.209Z,5.97
2023-02-08T15:47:23.925Z,5.80
2023-02-08T15:49:53.728Z,9.50
2023-02-08T15:52:23.686Z,4.80
2023-02-08T15:54:52.561Z,3.90
2023-02-08T15:57:23.555Z,4.70
2023-02-08T15:59:53.469Z,6.18
2023-02-08T16:02:24.982Z,5.82
2023-02-08T16:04:53.524Z,3.63
2023-02-08T16:07:25.281Z,4.75
2023-02-08T16:09:53.894Z,3.50
2023-02-08T16:12:23.709Z,4.00
2023-02-08T16:14:56.454Z,5.70
2023-02-08T16:17:33.698Z,3.67
2023-02-08T16:20:02.109Z,6.68
2023-02-08T16:22:32.732Z,7.93
2023-02-08T16:25:19.680Z,6.55
2023-02-08T16:27:49.803Z,9.60
2023-02-08T16:30:22.651Z,5.90
2023-02-08T16:32:51.368Z,6.30
2023-02-08T16:35:24.645Z,7.57
2023-02-08T16:37:58.818Z,14.57
2023-02-08T16:40:51.273Z,12.40
2023-02-08T16:43:29.411Z,14.60
2023-02-08T16:46:12.719Z,9.75
2023-02-08T16:48:43.064Z,10.55
2023-02-08T16:51:14.622Z,9.98
2023-02-08T16:53:43.236Z,9.88
2023-02-08T16:56:12.150Z,9.90
2023-02-08T16:58:40.603Z,9.45
2023-02-08T17:01:12.029Z,8.75
2023-02-08T17:03:41.894Z,11.23
2023-02-08T17:06:17.039Z,7.40
2023-02-08T17:08:45.477Z,10.68
2023-02-08T17:11:13.910Z,11.32
2023-02-08T17:13:42.493Z,7.20
2023-02-08T17:16:12.319Z,7.28
2023-02-08T17:18:50.513Z,8.43
2023-02-08T17:21:19.108Z,7.78
2023-02-08T17:23:47.740Z,6.28
2023-02-08T17:26:19.040Z,6.17
2023-02-08T17:28:47.483Z,6.97
2023-02-08T17:31:16.537Z,7.57
2023-02-08T17:33:46.401Z,7.63
2023-02-08T17:36:15.911Z,5.63
2023-02-08T17:38:45.264Z,7.43
2023-02-08T17:41:15.574Z,7.27
2023-02-08T17:43:44.181Z,10.90
2023-02-08T17:46:12.738Z,8.10
2023-02-08T17:48:41.405Z,10.40
2023-02-08T17:51:13.595Z,8.00
2023-02-08T17:53:44.071Z,7.57
2023-02-08T17:56:13.431Z,8.30
2023-02-08T17:58:41.888Z,9.10
2023-02-08T18:01:11.250Z,14.67
2023-02-08T18:03:39.812Z,13.10
2023-02-08T18:06:08.674Z,12.13
2023-02-08T18:08:38.880Z,12.23
2023-02-08T18:11:08.086Z,11.20
2023-02-08T18:13:36.826Z,17.80
2023-02-08T18:16:09.491Z,11.00
2023-02-08T18:18:38.043Z,12.37
2023-02-08T18:21:10.858Z,11.40
2023-02-08T18:23:40.989Z,10.17
2023-02-08T18:26:10.175Z,11.33
2023-02-08T18:28:38.759Z,12.33
2023-02-08T18:31:08.283Z,10.77
2023-02-08T18:33:37.235Z,12.87
2023-02-08T18:36:06.992Z,13.50
2023-02-08T18:38:35.475Z,12.57
2023-02-08T18:41:08.774Z,11.23
2023-02-08T18:43:37.375Z,13.00
2023-02-08T18:46:06.761Z,11.27
2023-02-08T18:48:35.277Z,9.47
2023-02-08T18:51:04.483Z,9.17
2023-02-08T18:53:34.061Z,10.63
2023-02-08T18:56:03.390Z,9.63
2023-02-08T18:58:33.340Z,10.20
2023-02-08T19:01:06.835Z,9.10
2023-02-08T19:03:36.157Z,9.40
2023-02-08T19:06:05.652Z,9.63
2023-02-08T19:08:35.091Z,11.47
2023-02-08T19:11:03.533Z,9.33
2023-02-08T19:13:35.395Z,8.40
2023-02-08T19:16:03.839Z,10.43
2023-02-08T19:18:32.284Z,11.60
2023-02-08T19:21:04.629Z,9.50
2023-02-08T19:23:33.091Z,11.17
2023-02-08T19:26:02.946Z,8.40
2023-02-08T19:28:33.957Z,11.20
2023-02-08T19:31:06.833Z,9.97
2023-02-08T19:33:35.335Z,11.30
2023-02-08T19:36:08.239Z,10.57
2023-02-08T19:38:36.739Z,12.00
2023-02-08T19:41:05.651Z,11.57
2023-02-08T19:43:36.467Z,10.73
2023-02-08T19:46:10.322Z,8.67
2023-02-08T19:48:38.857Z,9.27
2023-02-08T19:51:07.734Z,9.23
2023-02-08T19:53:36.168Z,9.47
2023-02-08T19:56:05.258Z,7.10
2023-02-08T19:58:35.570Z,8.73
2023-02-08T20:01:07.430Z,8.73
2023-02-08T20:03:36.008Z,9.07
2023-02-08T20:06:04.518Z,7.27
2023-02-08T20:08:33.317Z,7.20
2023-02-08T20:11:01.756Z,8.03
2023-02-08T20:13:30.206Z,6.10
2023-02-08T20:16:00.813Z,8.07
2023-02-08T20:18:29.320Z,9.17
2023-02-08T20:21:01.761Z,5.87
2023-02-08T20:23:30.289Z,7.40
2023-02-08T20:26:09.664Z,6.60
2023-02-08T20:28:38.832Z,7.97
2023-02-08T20:31:12.384Z,6.73
2023-02-08T20:33:40.819Z,8.87
2023-02-08T20:36:10.233Z,6.03
2023-02-08T20:38:39.383Z,6.07
2023-02-08T20:41:08.597Z,7.70
2023-02-08T20:43:37.186Z,7.30
2023-02-08T20:46:07.239Z,6.00
2023-02-08T20:48:37.482Z,7.67
2023-02-08T20:51:06.850Z,5.93
2023-02-08T20:53:35.792Z,6.93
2023-02-08T20:56:07.241Z,7.57
2023-02-08T20:58:36.041Z,7.57
2023-02-08T21:01:04.651Z,9.70
2023-02-08T21:03:33.306Z,8.73
2023-02-08T21:06:03.607Z,8.07
2023-02-08T21:08:32.007Z,5.87
2023-02-08T21:11:03.372Z,8.30
2023-02-08T21:13:32.100Z,8.60
2023-02-08T21:16:01.878Z,7.37
2023-02-08T21:18:30.449Z,7.57
2023-02-08T21:20:59.249Z,8.67
2023-02-08T21:23:31.186Z,6.80
2023-02-08T21:26:00.494Z,9.00
2023-02-08T21:28:29.484Z,7.87
2023-02-08T21:30:58.781Z,9.67
2023-02-08T21:33:27.719Z,6.57
2023-02-08T21:35:56.385Z,9.47
2023-02-08T21:38:24.857Z,9.97
2023-02-08T21:40:54.901Z,7.37
2023-02-08T21:43:23.344Z,6.70
2023-02-08T21:45:51.947Z,9.50
2023-02-08T21:48:20.495Z,8.70
2023-02-08T21:51:05.666Z,8.03
2023-02-08T21:53:47.914Z,8.13
2023-02-08T21:56:17.786Z,10.63
2023-02-08T21:58:46.264Z,7.07
2023-02-08T22:01:14.811Z,10.60
2023-02-08T22:03:43.298Z,10.60
2023-02-08T22:06:11.767Z,8.43
2023-02-08T22:08:40.190Z,8.60
2023-02-08T22:11:09.019Z,10.77
2023-02-08T22:13:38.920Z,10.10
2023-02-08T22:16:09.568Z,8.63
2023-02-08T22:18:41.279Z,8.93
2023-02-08T22:21:09.751Z,10.00
2023-02-08T22:23:38.170Z,9.27
2023-02-08T22:26:09.234Z,10.30
2023-02-08T22:28:39.106Z,9.93
2023-02-08T22:31:07.704Z,12.53
2023-02-08T22:33:36.231Z,9.13
2023-02-08T22:36:08.131Z,8.37
2023-02-08T22:38:36.600Z,8.13
2023-02-08T22:41:10.642Z,7.70
2023-02-08T22:43:40.458Z,8.93
2023-02-08T22:46:09.255Z,10.83
2023-02-08T22:48:37.851Z,8.10
2023-02-08T22:51:09.505Z,8.07
2023-02-08T22:53:38.044Z,9.27
2023-02-08T22:56:07.001Z,9.37
2023-02-08T22:58:35.417Z,12.20
2023-02-08T23:01:05.246Z,12.47
2023-02-08T23:03:33.684Z,10.73
2023-02-08T23:06:06.055Z,9.40
2023-02-08T23:08:34.798Z,7.17
2023-02-08T23:11:04.702Z,9.63
2023-02-08T23:13:33.794Z,9.93
2023-02-08T23:16:02.443Z,9.47
2023-02-08T23:18:32.283Z,9.43
2023-02-08T23:21:00.671Z,9.57
2023-02-08T23:23:29.116Z,7.97
2023-02-08T23:25:57.536Z,7.70
2023-02-08T23:28:26.046Z,10.03
2023-02-08T23:30:54.562Z,8.40
2023-02-08T23:33:23.030Z,10.93
2023-02-08T23:35:52.788Z,8.83
2023-02-08T23:38:21.239Z,8.03
2023-02-08T23:40:49.669Z,10.80
2023-02-08T23:43:18.098Z,7.53
2023-02-08T23:45:46.538Z,9.93
2023-02-08T23:48:14.963Z,9.40
2023-02-08T23:50:43.525Z,11.53
2023-02-08T23:53:13.565Z,9.80
2023-02-08T23:55:42.006Z,8.47
2023-02-08T23:58:10.443Z,8.00
